sensor_id;sensor_type;location;lat;lon;timestamp;P1;durP1;ratioP1;P2;durP2;ratioP2
29776;SDS011;16677;52.224;7.484;2023-07-29T00:02:01;5.87;;;4.37;;
29776;SDS011;16677;52.224;7.484;2023-07-29T00:04:29;4.90;;;4.22;;
29776;SDS011;16677;52.224;7.484;2023-07-29T00:06:56;5.35;;;4.55;;
29776;SDS011;16677;52.224;7.484;2023-07-29T00:09:24;5.17;;;4.63;;
29776;SDS011;16677;52.224;7.484;2023-07-29T00:11:53;7.50;;;5.10;;
29776;SDS011;16677;52.224;7.484;2023-07-29T00:14:20;5.60;;;5.20;;
29776;SDS011;16677;52.224;7.484;2023-07-29T00:16:48;6.18;;;5.57;;
29776;SDS011;16677;52.224;7.484;2023-07-29T00:19:16;6.57;;;5.97;;
29776;SDS011;16677;52.224;7.484;2023-07-29T00:21:49;7.95;;;6.35;;
29776;SDS011;16677;52.224;7.484;2023-07-29T00:24:17;6.57;;;5.60;;
29776;SDS011;16677;52.224;7.484;2023-07-29T00:29:12;5.85;;;5.35;;
29776;SDS011;16677;52.224;7.484;2023-07-29T00:31:39;6.75;;;6.13;;
29776;SDS011;16677;52.224;7.484;2023-07-29T00:34:06;6.43;;;5.78;;
29776;SDS011;16677;52.224;7.484;2023-07-29T00:36:34;8.35;;;7.25;;
29776;SDS011;16677;52.224;7.484;2023-07-29T00:39:02;8.65;;;7.95;;
29776;SDS011;16677;52.224;7.484;2023-07-29T00:41:29;8.13;;;7.32;;
29776;SDS011;16677;52.224;7.484;2023-07-29T00:43:56;7.85;;;7.20;;
29776;SDS011;16677;52.224;7.484;2023-07-29T00:46:24;7.88;;;7.18;;
29776;SDS011;16677;52.224;7.484;2023-07-29T00:48:51;8.38;;;7.50;;
29776;SDS011;16677;52.224;7.484;2023-07-29T00:51:19;8.38;;;7.57;;
29776;SDS011;16677;52.224;7.484;2023-07-29T00:53:46;8.45;;;7.75;;
29776;SDS011;16677;52.224;7.484;2023-07-29T00:56:13;8.80;;;8.00;;
29776;SDS011;16677;52.224;7.484;2023-07-29T00:58:40;10.13;;;9.15;;
29776;SDS011;16677;52.224;7.484;2023-07-29T01:01:08;11.38;;;10.32;;
29776;SDS011;16677;52.224;7.484;2023-07-29T01:03:36;10.82;;;9.77;;
29776;SDS011;16677;52.224;7.484;2023-07-29T01:13:17;10.07;;;9.25;;
29776;SDS011;16677;52.224;7.484;2023-07-29T01:15:32;10.40;;;9.48;;
29776;SDS011;16677;52.224;7.484;2023-07-29T01:18:14;10.45;;;9.38;;
29776;SDS011;16677;52.224;7.484;2023-07-29T01:21:25;9.52;;;8.73;;
29776;SDS011;16677;52.224;7.484;2023-07-29T01:23:58;9.68;;;8.88;;
29776;SDS011;16677;52.224;7.484;2023-07-29T01:26:26;9.18;;;8.48;;
29776;SDS011;16677;52.224;7.484;2023-07-29T01:28:56;8.90;;;8.18;;
29776;SDS011;16677;52.224;7.484;2023-07-29T01:31:31;9.30;;;8.40;;
29776;SDS011;16677;52.224;7.484;2023-07-29T01:34:13;9.63;;;8.80;;
29776;SDS011;16677;52.224;7.484;2023-07-29T01:37:08;10.20;;;9.20;;
29776;SDS011;16677;52.224;7.484;2023-07-29T01:39:41;10.23;;;9.27;;
29776;SDS011;16677;52.224;7.484;2023-07-29T01:42:12;10.30;;;9.40;;
29776;SDS011;16677;52.224;7.484;2023-07-29T01:44:39;10.23;;;8.90;;
29776;SDS011;16677;52.224;7.484;2023-07-29T01:47:09;10.20;;;9.30;;
29776;SDS011;16677;52.224;7.484;2023-07-29T01:49:37;9.90;;;9.00;;
29776;SDS011;16677;52.224;7.484;2023-07-29T01:52:08;9.70;;;8.90;;
29776;SDS011;16677;52.224;7.484;2023-07-29T01:54:36;9.57;;;8.57;;
29776;SDS011;16677;52.224;7.484;2023-07-29T01:57:05;9.50;;;8.60;;
29776;SDS011;16677;52.224;7.484;2023-07-29T01:59:39;9.40;;;8.50;;
29776;SDS011;16677;52.224;7.484;2023-07-29T02:02:07;9.00;;;8.20;;
29776;SDS011;16677;52.224;7.484;2023-07-29T02:04:34;9.30;;;8.30;;
29776;SDS011;16677;52.224;7.484;2023-07-29T02:07:02;9.80;;;9.00;;
29776;SDS011;16677;52.224;7.484;2023-07-29T02:09:32;9.75;;;8.85;;
29776;SDS011;16677;52.224;7.484;2023-07-29T02:12:00;9.73;;;8.63;;
29776;SDS011;16677;52.224;7.484;2023-07-29T02:14:32;9.18;;;8.38;;
29776;SDS011;16677;52.224;7.484;2023-07-29T02:16:59;9.13;;;8.35;;
29776;SDS011;16677;52.224;7.484;2023-07-29T02:19:28;8.85;;;8.07;;
29776;SDS011;16677;52.224;7.484;2023-07-29T02:21:56;8.90;;;8.00;;
29776;SDS011;16677;52.224;7.484;2023-07-29T02:24:23;8.95;;;8.15;;
29776;SDS011;16677;52.224;7.484;2023-07-29T02:26:52;9.15;;;8.25;;
29776;SDS011;16677;52.224;7.484;2023-07-29T02:29:19;8.95;;;8.15;;
29776;SDS011;16677;52.224;7.484;2023-07-29T02:31:49;8.98;;;8.27;;
29776;SDS011;16677;52.224;7.484;2023-07-29T02:34:16;8.98;;;8.18;;
29776;SDS011;16677;52.224;7.484;2023-07-29T02:36:43;9.55;;;8.55;;
29776;SDS011;16677;52.224;7.484;2023-07-29T02:39:11;9.38;;;8.55;;
29776;SDS011;16677;52.224;7.484;2023-07-29T02:41:42;10.02;;;9.10;;
29776;SDS011;16677;52.224;7.484;2023-07-29T02:44:09;10.95;;;9.85;;
29776;SDS011;16677;52.224;7.484;2023-07-29T02:46:43;10.90;;;10.02;;
29776;SDS011;16677;52.224;7.484;2023-07-29T02:49:10;10.93;;;9.98;;
29776;SDS011;16677;52.224;7.484;2023-07-29T02:51:37;10.40;;;9.50;;
29776;SDS011;16677;52.224;7.484;2023-07-29T02:54:05;10.35;;;9.55;;
29776;SDS011;16677;52.224;7.484;2023-07-29T02:56:32;11.73;;;10.53;;
29776;SDS011;16677;52.224;7.484;2023-07-29T02:59:00;10.82;;;9.82;;
29776;SDS011;16677;52.224;7.484;2023-07-29T03:01:28;10.73;;;9.80;;
29776;SDS011;16677;52.224;7.484;2023-07-29T03:03:55;10.93;;;10.02;;
29776;SDS011;16677;52.224;7.484;2023-07-29T03:06:23;11.05;;;9.98;;
29776;SDS011;16677;52.224;7.484;2023-07-29T03:08:54;10.75;;;9.75;;
29776;SDS011;16677;52.224;7.484;2023-07-29T03:11:21;11.35;;;10.18;;
29776;SDS011;16677;52.224;7.484;2023-07-29T03:13:52;10.18;;;9.27;;
29776;SDS011;16677;52.224;7.484;2023-07-29T03:16:23;10.77;;;9.85;;
29776;SDS011;16677;52.224;7.484;2023-07-29T03:18:50;11.25;;;10.20;;
29776;SDS011;16677;52.224;7.484;2023-07-29T03:21:21;10.82;;;9.73;;
29776;SDS011;16677;52.224;7.484;2023-07-29T03:23:48;11.20;;;10.10;;
29776;SDS011;16677;52.224;7.484;2023-07-29T03:26:15;12.13;;;11.02;;
29776;SDS011;16677;52.224;7.484;2023-07-29T03:28:43;11.30;;;10.40;;
29776;SDS011;16677;52.224;7.484;2023-07-29T03:31:13;12.98;;;11.68;;
29776;SDS011;16677;52.224;7.484;2023-07-29T03:33:40;12.82;;;11.63;;
29776;SDS011;16677;52.224;7.484;2023-07-29T03:36:07;13.80;;;12.70;;
29776;SDS011;16677;52.224;7.484;2023-07-29T03:38:35;14.27;;;12.98;;
29776;SDS011;16677;52.224;7.484;2023-07-29T03:41:09;14.10;;;12.83;;
29776;SDS011;16677;52.224;7.484;2023-07-29T03:43:37;14.27;;;13.15;;
29776;SDS011;16677;52.224;7.484;2023-07-29T03:46:04;14.68;;;13.27;;
29776;SDS011;16677;52.224;7.484;2023-07-29T03:48:35;14.48;;;13.30;;
29776;SDS011;16677;52.224;7.484;2023-07-29T03:51:02;14.85;;;13.45;;
29776;SDS011;16677;52.224;7.484;2023-07-29T03:53:33;14.73;;;13.50;;
29776;SDS011;16677;52.224;7.484;2023-07-29T03:56:07;14.77;;;13.48;;
29776;SDS011;16677;52.224;7.484;2023-07-29T03:58:34;14.40;;;13.20;;
29776;SDS011;16677;52.224;7.484;2023-07-29T04:01:01;14.65;;;13.35;;
29776;SDS011;16677;52.224;7.484;2023-07-29T04:03:29;14.40;;;13.27;;
29776;SDS011;16677;52.224;7.484;2023-07-29T04:05:56;14.43;;;13.10;;
29776;SDS011;16677;52.224;7.484;2023-07-29T04:08:23;15.25;;;14.05;;
29776;SDS011;16677;52.224;7.484;2023-07-29T04:10:51;15.23;;;13.87;;
29776;SDS011;16677;52.224;7.484;2023-07-29T04:13:18;14.55;;;13.25;;
29776;SDS011;16677;52.224;7.484;2023-07-29T04:15:48;15.20;;;14.00;;
29776;SDS011;16677;52.224;7.484;2023-07-29T04:18:15;15.23;;;13.93;;
29776;SDS011;16677;52.224;7.484;2023-07-29T04:20:43;14.82;;;13.52;;
29776;SDS011;16677;52.224;7.484;2023-07-29T04:23:11;14.80;;;13.52;;
29776;SDS011;16677;52.224;7.484;2023-07-29T04:25:38;14.07;;;12.83;;
29776;SDS011;16677;52.224;7.484;2023-07-29T04:28:05;13.80;;;12.70;;
29776;SDS011;16677;52.224;7.484;2023-07-29T04:30:32;14.18;;;13.00;;
29776;SDS011;16677;52.224;7.484;2023-07-29T04:33:00;14.20;;;13.10;;
29776;SDS011;16677;52.224;7.484;2023-07-29T04:35:27;14.10;;;12.90;;
29776;SDS011;16677;52.224;7.484;2023-07-29T04:37:54;13.35;;;12.18;;
29776;SDS011;16677;52.224;7.484;2023-07-29T04:40:21;14.05;;;12.85;;
29776;SDS011;16677;52.224;7.484;2023-07-29T04:42:49;14.13;;;13.00;;
29776;SDS011;16677;52.224;7.484;2023-07-29T04:45:17;14.18;;;13.07;;
29776;SDS011;16677;52.224;7.484;2023-07-29T04:47:45;14.65;;;13.38;;
29776;SDS011;16677;52.224;7.484;2023-07-29T04:50:15;14.52;;;13.43;;
29776;SDS011;16677;52.224;7.484;2023-07-29T04:52:45;16.35;;;14.95;;
29776;SDS011;16677;52.224;7.484;2023-07-29T04:55:12;15.90;;;14.43;;
29776;SDS011;16677;52.224;7.484;2023-07-29T04:57:39;17.30;;;15.97;;
29776;SDS011;16677;52.224;7.484;2023-07-29T05:00:08;16.40;;;15.10;;
29776;SDS011;16677;52.224;7.484;2023-07-29T05:02:36;16.52;;;15.00;;
29776;SDS011;16677;52.224;7.484;2023-07-29T05:05:04;17.20;;;15.70;;
29776;SDS011;16677;52.224;7.484;2023-07-29T05:07:31;17.60;;;16.05;;
29776;SDS011;16677;52.224;7.484;2023-07-29T05:09:58;16.80;;;15.33;;
29776;SDS011;16677;52.224;7.484;2023-07-29T05:12:26;16.52;;;15.13;;
29776;SDS011;16677;52.224;7.484;2023-07-29T05:14:53;17.05;;;15.38;;
29776;SDS011;16677;52.224;7.484;2023-07-29T05:17:21;17.25;;;15.90;;
29776;SDS011;16677;52.224;7.484;2023-07-29T05:19:48;16.00;;;14.60;;
29776;SDS011;16677;52.224;7.484;2023-07-29T05:22:15;16.40;;;15.07;;
29776;SDS011;16677;52.224;7.484;2023-07-29T05:24:43;16.37;;;14.97;;
29776;SDS011;16677;52.224;7.484;2023-07-29T05:27:10;16.55;;;15.15;;
29776;SDS011;16677;52.224;7.484;2023-07-29T05:29:37;14.60;;;13.30;;
29776;SDS011;16677;52.224;7.484;2023-07-29T08:15:17;2.28;;;1.95;;
29776;SDS011;16677;52.224;7.484;2023-07-29T08:17:47;2.67;;;2.47;;
29776;SDS011;16677;52.224;7.484;2023-07-29T08:58:07;3.70;;;2.40;;
29776;SDS011;16677;52.224;7.484;2023-07-29T09:00:43;3.53;;;2.60;;
29776;SDS011;16677;52.224;7.484;2023-07-29T09:03:16;3.25;;;2.50;;
29776;SDS011;16677;52.224;7.484;2023-07-29T09:05:50;4.80;;;2.70;;
29776;SDS011;16677;52.224;7.484;2023-07-29T09:08:20;2.70;;;2.50;;
29776;SDS011;16677;52.224;7.484;2023-07-29T09:10:55;3.20;;;2.70;;
29776;SDS011;16677;52.224;7.484;2023-07-29T09:13:25;2.95;;;2.63;;
29776;SDS011;16677;52.224;7.484;2023-07-29T09:16:08;2.72;;;2.30;;
29776;SDS011;16677;52.224;7.484;2023-07-29T09:18:37;3.08;;;2.50;;
29776;SDS011;16677;52.224;7.484;2023-07-29T09:21:08;2.83;;;2.40;;
29776;SDS011;16677;52.224;7.484;2023-07-29T09:23:42;4.78;;;2.60;;
29776;SDS011;16677;52.224;7.484;2023-07-29T09:26:11;3.05;;;2.75;;
29776;SDS011;16677;52.224;7.484;2023-07-29T09:28:40;4.30;;;3.03;;
29776;SDS011;16677;52.224;7.484;2023-07-29T09:31:18;4.05;;;3.08;;
29776;SDS011;16677;52.224;7.484;2023-07-29T09:33:48;3.00;;;2.30;;
29776;SDS011;16677;52.224;7.484;2023-07-29T09:36:16;3.20;;;2.08;;
29776;SDS011;16677;52.224;7.484;2023-07-29T09:38:47;3.78;;;2.20;;
29776;SDS011;16677;52.224;7.484;2023-07-29T09:41:15;3.13;;;2.13;;
29776;SDS011;16677;52.224;7.484;2023-07-29T09:43:56;2.63;;;2.10;;
29776;SDS011;16677;52.224;7.484;2023-07-29T09:46:36;2.63;;;2.08;;
29776;SDS011;16677;52.224;7.484;2023-07-29T09:49:07;3.03;;;1.90;;
29776;SDS011;16677;52.224;7.484;2023-07-29T09:51:39;2.35;;;1.98;;
29776;SDS011;16677;52.224;7.484;2023-07-29T09:54:13;2.25;;;1.67;;
29776;SDS011;16677;52.224;7.484;2023-07-29T09:56:42;2.08;;;1.98;;
29776;SDS011;16677;52.224;7.484;2023-07-29T09:59:13;2.92;;;1.77;;
29776;SDS011;16677;52.224;7.484;2023-07-29T10:01:47;2.28;;;1.95;;
29776;SDS011;16677;52.224;7.484;2023-07-29T10:04:16;2.92;;;1.65;;
29776;SDS011;16677;52.224;7.484;2023-07-29T10:06:45;2.97;;;1.70;;
29776;SDS011;16677;52.224;7.484;2023-07-29T10:09:13;1.73;;;1.63;;
29776;SDS011;16677;52.224;7.484;2023-07-29T10:11:43;2.65;;;1.55;;
29776;SDS011;16677;52.224;7.484;2023-07-29T10:14:10;1.38;;;1.13;;
29776;SDS011;16677;52.224;7.484;2023-07-29T10:16:39;1.60;;;1.50;;
29776;SDS011;16677;52.224;7.484;2023-07-29T10:19:08;1.98;;;1.38;;
29776;SDS011;16677;52.224;7.484;2023-07-29T10:21:37;1.92;;;1.40;;
29776;SDS011;16677;52.224;7.484;2023-07-29T10:24:09;1.42;;;1.33;;
29776;SDS011;16677;52.224;7.484;2023-07-29T10:26:46;1.80;;;1.58;;
29776;SDS011;16677;52.224;7.484;2023-07-29T10:29:18;2.65;;;1.65;;
29776;SDS011;16677;52.224;7.484;2023-07-29T10:31:49;2.60;;;1.63;;
29776;SDS011;16677;52.224;7.484;2023-07-29T10:34:22;2.35;;;1.70;;
29776;SDS011;16677;52.224;7.484;2023-07-29T10:36:50;2.53;;;1.67;;
29776;SDS011;16677;52.224;7.484;2023-07-29T10:39:20;2.70;;;1.88;;
29776;SDS011;16677;52.224;7.484;2023-07-29T10:42:21;1.73;;;1.63;;
29776;SDS011;16677;52.224;7.484;2023-07-29T10:47:12;1.48;;;1.38;;
29776;SDS011;16677;52.224;7.484;2023-07-29T10:49:44;3.05;;;2.00;;
29776;SDS011;16677;52.224;7.484;2023-07-29T10:52:17;2.13;;;1.77;;
29776;SDS011;16677;52.224;7.484;2023-07-29T10:55:24;2.92;;;2.00;;
29776;SDS011;16677;52.224;7.484;2023-07-29T10:58:06;3.70;;;2.10;;
29776;SDS011;16677;52.224;7.484;2023-07-29T11:00:42;2.67;;;2.00;;
29776;SDS011;16677;52.224;7.484;2023-07-29T11:03:11;2.45;;;1.80;;
29776;SDS011;16677;52.224;7.484;2023-07-29T11:05:50;2.85;;;1.73;;
29776;SDS011;16677;52.224;7.484;2023-07-29T11:08:20;1.75;;;1.65;;
29776;SDS011;16677;52.224;7.484;2023-07-29T11:10:57;2.03;;;1.85;;
29776;SDS011;16677;52.224;7.484;2023-07-29T11:13:30;2.90;;;1.98;;
29776;SDS011;16677;52.224;7.484;2023-07-29T11:16:00;1.90;;;1.80;;
29776;SDS011;16677;52.224;7.484;2023-07-29T11:18:28;2.15;;;1.90;;
29776;SDS011;16677;52.224;7.484;2023-07-29T11:21:01;2.53;;;2.17;;
29776;SDS011;16677;52.224;7.484;2023-07-29T11:23:34;3.72;;;2.05;;
29776;SDS011;16677;52.224;7.484;2023-07-29T11:26:03;2.42;;;1.90;;
29776;SDS011;16677;52.224;7.484;2023-07-29T11:28:31;2.10;;;1.90;;
29776;SDS011;16677;52.224;7.484;2023-07-29T12:15:37;1.70;;;1.47;;
29776;SDS011;16677;52.224;7.484;2023-07-29T12:18:06;4.18;;;1.42;;
29776;SDS011;16677;52.224;7.484;2023-07-29T12:20:34;3.08;;;1.33;;
29776;SDS011;16677;52.224;7.484;2023-07-29T12:23:02;2.08;;;1.50;;
29776;SDS011;16677;52.224;7.484;2023-07-29T12:25:35;1.40;;;1.30;;
29776;SDS011;16677;52.224;7.484;2023-07-29T12:30:42;3.35;;;1.50;;
29776;SDS011;16677;52.224;7.484;2023-07-29T12:33:10;1.48;;;1.30;;
29776;SDS011;16677;52.224;7.484;2023-07-29T12:35:55;3.58;;;1.42;;
29776;SDS011;16677;52.224;7.484;2023-07-29T12:38:22;2.45;;;1.27;;
29776;SDS011;16677;52.224;7.484;2023-07-29T12:40:49;1.70;;;1.38;;
29776;SDS011;16677;52.224;7.484;2023-07-29T12:43:16;1.80;;;1.23;;
29776;SDS011;16677;52.224;7.484;2023-07-29T12:45:43;1.90;;;1.40;;
29776;SDS011;16677;52.224;7.484;2023-07-29T12:48:11;1.80;;;1.60;;
29776;SDS011;16677;52.224;7.484;2023-07-29T12:50:38;1.38;;;1.27;;
29776;SDS011;16677;52.224;7.484;2023-07-29T12:53:06;1.30;;;1.20;;
29776;SDS011;16677;52.224;7.484;2023-07-29T12:55:38;3.95;;;1.58;;
29776;SDS011;16677;52.224;7.484;2023-07-29T12:58:08;2.28;;;1.52;;
29776;SDS011;16677;52.224;7.484;2023-07-29T13:00:36;1.90;;;1.38;;
29776;SDS011;16677;52.224;7.484;2023-07-29T13:03:03;2.63;;;1.67;;
29776;SDS011;16677;52.224;7.484;2023-07-29T13:05:32;2.85;;;1.45;;
29776;SDS011;16677;52.224;7.484;2023-07-29T13:08:01;1.63;;;1.52;;
29776;SDS011;16677;52.224;7.484;2023-07-29T13:10:31;1.90;;;1.67;;
29776;SDS011;16677;52.224;7.484;2023-07-29T13:12:58;3.38;;;1.67;;
29776;SDS011;16677;52.224;7.484;2023-07-29T13:15:25;2.78;;;2.00;;
29776;SDS011;16677;52.224;7.484;2023-07-29T13:17:55;1.88;;;1.65;;
29776;SDS011;16677;52.224;7.484;2023-07-29T13:20:23;2.10;;;1.90;;
29776;SDS011;16677;52.224;7.484;2023-07-29T13:22:50;1.80;;;1.70;;
29776;SDS011;16677;52.224;7.484;2023-07-29T13:25:17;1.73;;;1.63;;
29776;SDS011;16677;52.224;7.484;2023-07-29T13:27:45;2.50;;;1.90;;
29776;SDS011;16677;52.224;7.484;2023-07-29T13:30:12;2.20;;;1.90;;
29776;SDS011;16677;52.224;7.484;2023-07-29T13:32:39;1.75;;;1.60;;
29776;SDS011;16677;52.224;7.484;2023-07-29T13:35:06;2.40;;;1.92;;
29776;SDS011;16677;52.224;7.484;2023-07-29T14:31:34;2.60;;;2.40;;
29776;SDS011;16677;52.224;7.484;2023-07-29T14:34:02;2.05;;;1.88;;
29776;SDS011;16677;52.224;7.484;2023-07-29T14:36:29;2.47;;;2.15;;
29776;SDS011;16677;52.224;7.484;2023-07-29T14:38:56;2.65;;;2.05;;
29776;SDS011;16677;52.224;7.484;2023-07-29T14:41:23;2.65;;;2.45;;
29776;SDS011;16677;52.224;7.484;2023-07-29T14:43:51;3.25;;;2.53;;
29776;SDS011;16677;52.224;7.484;2023-07-29T14:46:18;3.67;;;2.72;;
29776;SDS011;16677;52.224;7.484;2023-07-29T14:48:45;2.78;;;2.58;;
29776;SDS011;16677;52.224;7.484;2023-07-29T14:51:13;3.22;;;2.50;;
29776;SDS011;16677;52.224;7.484;2023-07-29T14:53:40;3.22;;;2.60;;
29776;SDS011;16677;52.224;7.484;2023-07-29T14:56:08;2.60;;;2.40;;
29776;SDS011;16677;52.224;7.484;2023-07-29T14:58:35;2.95;;;2.70;;
29776;SDS011;16677;52.224;7.484;2023-07-29T15:01:02;3.33;;;2.60;;
29776;SDS011;16677;52.224;7.484;2023-07-29T15:03:29;3.00;;;2.40;;
29776;SDS011;16677;52.224;7.484;2023-07-29T15:05:56;2.95;;;2.20;;
29776;SDS011;16677;52.224;7.484;2023-07-29T15:08:25;2.30;;;1.92;;
29776;SDS011;16677;52.224;7.484;2023-07-29T15:10:52;2.00;;;1.80;;
29776;SDS011;16677;52.224;7.484;2023-07-29T15:13:21;2.42;;;1.92;;
29776;SDS011;16677;52.224;7.484;2023-07-29T15:15:48;2.38;;;1.60;;
29776;SDS011;16677;52.224;7.484;2023-07-29T15:18:16;2.15;;;1.70;;
29776;SDS011;16677;52.224;7.484;2023-07-29T15:20:44;2.47;;;1.40;;
29776;SDS011;16677;52.224;7.484;2023-07-29T15:23:11;1.48;;;1.38;;
29776;SDS011;16677;52.224;7.484;2023-07-29T15:28:06;1.40;;;1.30;;
29776;SDS011;16677;52.224;7.484;2023-07-29T15:30:35;1.40;;;1.30;;
29776;SDS011;16677;52.224;7.484;2023-07-29T15:33:03;1.63;;;1.40;;
29776;SDS011;16677;52.224;7.484;2023-07-29T15:35:32;1.40;;;1.30;;
29776;SDS011;16677;52.224;7.484;2023-07-29T15:38:06;1.30;;;1.20;;
29776;SDS011;16677;52.224;7.484;2023-07-29T15:40:34;1.50;;;1.40;;
29776;SDS011;16677;52.224;7.484;2023-07-29T15:43:01;1.65;;;1.30;;
29776;SDS011;16677;52.224;7.484;2023-07-29T15:45:28;2.33;;;1.40;;
29776;SDS011;16677;52.224;7.484;2023-07-29T15:47:55;1.38;;;1.20;;
29776;SDS011;16677;52.224;7.484;2023-07-29T15:50:22;2.00;;;1.40;;
29776;SDS011;16677;52.224;7.484;2023-07-29T15:52:49;1.25;;;1.15;;
29776;SDS011;16677;52.224;7.484;2023-07-29T15:55:17;1.50;;;1.33;;
29776;SDS011;16677;52.224;7.484;2023-07-29T15:57:44;1.25;;;1.15;;
29776;SDS011;16677;52.224;7.484;2023-07-29T16:00:11;1.55;;;1.42;;
29776;SDS011;16677;52.224;7.484;2023-07-29T16:02:39;1.40;;;1.20;;
29776;SDS011;16677;52.224;7.484;2023-07-29T16:05:06;3.58;;;1.30;;
29776;SDS011;16677;52.224;7.484;2023-07-29T16:07:34;2.10;;;1.38;;
29776;SDS011;16677;52.224;7.484;2023-07-29T16:10:01;2.30;;;1.30;;
29776;SDS011;16677;52.224;7.484;2023-07-29T16:12:28;1.08;;;1.00;;
29776;SDS011;16677;52.224;7.484;2023-07-29T16:14:55;0.98;;;0.98;;
29776;SDS011;16677;52.224;7.484;2023-07-29T16:17:23;1.10;;;1.00;;
29776;SDS011;16677;52.224;7.484;2023-07-29T16:19:57;2.08;;;1.10;;
29776;SDS011;16677;52.224;7.484;2023-07-29T16:22:26;1.50;;;1.20;;
29776;SDS011;16677;52.224;7.484;2023-07-29T16:24:54;1.25;;;1.10;;
29776;SDS011;16677;52.224;7.484;2023-07-29T16:27:21;1.35;;;1.25;;
29776;SDS011;16677;52.224;7.484;2023-07-29T16:29:49;1.42;;;1.30;;
29776;SDS011;16677;52.224;7.484;2023-07-29T16:32:16;1.30;;;1.20;;
29776;SDS011;16677;52.224;7.484;2023-07-29T16:34:44;1.30;;;1.20;;
29776;SDS011;16677;52.224;7.484;2023-07-29T16:37:11;1.30;;;1.20;;
29776;SDS011;16677;52.224;7.484;2023-07-29T16:39:39;2.05;;;1.40;;
29776;SDS011;16677;52.224;7.484;2023-07-29T16:44:34;2.50;;;1.20;;
29776;SDS011;16677;52.224;7.484;2023-07-29T16:47:01;1.90;;;1.30;;
29776;SDS011;16677;52.224;7.484;2023-07-29T16:51:56;1.40;;;1.30;;
29776;SDS011;16677;52.224;7.484;2023-07-29T16:54:23;2.22;;;1.20;;
29776;SDS011;16677;52.224;7.484;2023-07-29T16:56:50;1.48;;;1.38;;
29776;SDS011;16677;52.224;7.484;2023-07-29T16:59:18;1.73;;;1.35;;
29776;SDS011;16677;52.224;7.484;2023-07-29T17:01:45;1.48;;;1.38;;
29776;SDS011;16677;52.224;7.484;2023-07-29T17:04:12;1.75;;;1.60;;
29776;SDS011;16677;52.224;7.484;2023-07-29T17:06:40;1.60;;;1.50;;
29776;SDS011;16677;52.224;7.484;2023-07-29T17:09:07;2.33;;;1.30;;
29776;SDS011;16677;52.224;7.484;2023-07-29T17:11:35;1.65;;;1.38;;
29776;SDS011;16677;52.224;7.484;2023-07-29T17:14:02;1.70;;;1.60;;
29776;SDS011;16677;52.224;7.484;2023-07-29T17:23:50;1.60;;;1.30;;
29776;SDS011;16677;52.224;7.484;2023-07-29T17:26:17;1.50;;;1.33;;
29776;SDS011;16677;52.224;7.484;2023-07-29T17:28:44;2.42;;;1.50;;
29776;SDS011;16677;52.224;7.484;2023-07-29T17:31:15;3.00;;;1.50;;
29776;SDS011;16677;52.224;7.484;2023-07-29T17:33:42;2.30;;;1.58;;
29776;SDS011;16677;52.224;7.484;2023-07-29T17:36:09;1.50;;;1.40;;
29776;SDS011;16677;52.224;7.484;2023-07-29T17:38:36;1.63;;;1.50;;
29776;SDS011;16677;52.224;7.484;2023-07-29T17:41:03;1.70;;;1.60;;
29776;SDS011;16677;52.224;7.484;2023-07-29T17:43:31;1.92;;;1.70;;
29776;SDS011;16677;52.224;7.484;2023-07-29T17:45:58;1.60;;;1.50;;
29776;SDS011;16677;52.224;7.484;2023-07-29T17:48:25;2.00;;;1.80;;
29776;SDS011;16677;52.224;7.484;2023-07-29T17:50:53;2.22;;;1.50;;
29776;SDS011;16677;52.224;7.484;2023-07-29T17:53:20;2.47;;;1.67;;
29776;SDS011;16677;52.224;7.484;2023-07-29T17:55:47;2.55;;;1.50;;
29776;SDS011;16677;52.224;7.484;2023-07-29T17:58:14;1.73;;;1.63;;
29776;SDS011;16677;52.224;7.484;2023-07-29T18:03:09;2.20;;;1.75;;
29776;SDS011;16677;52.224;7.484;2023-07-29T18:37:35;2.65;;;2.05;;
29776;SDS011;16677;52.224;7.484;2023-07-29T18:40:02;1.90;;;1.73;;
29776;SDS011;16677;52.224;7.484;2023-07-29T18:42:30;1.75;;;1.65;;
29776;SDS011;16677;52.224;7.484;2023-07-29T18:44:57;2.35;;;2.00;;
29776;SDS011;16677;52.224;7.484;2023-07-29T18:47:24;2.88;;;1.92;;
29776;SDS011;16677;52.224;7.484;2023-07-29T18:49:51;1.70;;;1.60;;
29776;SDS011;16677;52.224;7.484;2023-07-29T18:52:19;3.03;;;1.85;;
29776;SDS011;16677;52.224;7.484;2023-07-29T18:54:46;1.77;;;1.67;;
29776;SDS011;16677;52.224;7.484;2023-07-29T18:57:13;1.67;;;1.58;;
29776;SDS011;16677;52.224;7.484;2023-07-29T18:59:41;1.88;;;1.75;;
29776;SDS011;16677;52.224;7.484;2023-07-29T19:02:08;2.75;;;2.20;;
29776;SDS011;16677;52.224;7.484;2023-07-29T19:04:35;2.63;;;2.10;;
29776;SDS011;16677;52.224;7.484;2023-07-29T19:07:03;3.88;;;2.05;;
29776;SDS011;16677;52.224;7.484;2023-07-29T20:38:24;3.65;;;3.35;;
29776;SDS011;16677;52.224;7.484;2023-07-29T20:40:55;4.80;;;3.90;;
29776;SDS011;16677;52.224;7.484;2023-07-29T20:43:23;3.53;;;3.10;;
29776;SDS011;16677;52.224;7.484;2023-07-29T20:45:51;3.67;;;2.97;;
29776;SDS011;16677;52.224;7.484;2023-07-29T20:48:19;5.33;;;3.20;;
29776;SDS011;16677;52.224;7.484;2023-07-29T20:50:47;3.67;;;2.87;;
29776;SDS011;16677;52.224;7.484;2023-07-29T20:53:15;2.93;;;2.73;;
29776;SDS011;16677;52.224;7.484;2023-07-29T20:55:44;3.97;;;2.80;;
29776;SDS011;16677;52.224;7.484;2023-07-29T20:58:11;3.10;;;2.80;;
29776;SDS011;16677;52.224;7.484;2023-07-29T21:00:38;3.27;;;2.93;;
29776;SDS011;16677;52.224;7.484;2023-07-29T21:03:05;3.43;;;2.73;;
29776;SDS011;16677;52.224;7.484;2023-07-29T21:05:34;3.57;;;2.60;;
29776;SDS011;16677;52.224;7.484;2023-07-29T21:08:01;3.20;;;2.50;;
29776;SDS011;16677;52.224;7.484;2023-07-29T21:10:30;3.30;;;3.00;;
29776;SDS011;16677;52.224;7.484;2023-07-29T21:12:57;3.00;;;2.80;;
29776;SDS011;16677;52.224;7.484;2023-07-29T21:15:27;3.10;;;2.50;;
29776;SDS011;16677;52.224;7.484;2023-07-29T21:17:54;2.90;;;2.70;;
29776;SDS011;16677;52.224;7.484;2023-07-29T21:20:22;3.57;;;2.80;;
29776;SDS011;16677;52.224;7.484;2023-07-29T21:22:49;3.47;;;2.60;;
29776;SDS011;16677;52.224;7.484;2023-07-29T21:25:16;3.67;;;3.20;;
29776;SDS011;16677;52.224;7.484;2023-07-29T21:27:43;4.23;;;3.53;;
29776;SDS011;16677;52.224;7.484;2023-07-29T21:30:11;2.97;;;2.77;;
29776;SDS011;16677;52.224;7.484;2023-07-29T21:32:38;2.37;;;2.17;;
29776;SDS011;16677;52.224;7.484;2023-07-29T21:35:06;2.40;;;2.20;;
29776;SDS011;16677;52.224;7.484;2023-07-29T21:37:33;3.20;;;2.27;;
29776;SDS011;16677;52.224;7.484;2023-07-29T21:40:02;2.73;;;2.53;;
29776;SDS011;16677;52.224;7.484;2023-07-29T21:42:31;4.03;;;2.77;;
29776;SDS011;16677;52.224;7.484;2023-07-29T21:44:59;3.20;;;2.90;;
29776;SDS011;16677;52.224;7.484;2023-07-29T21:47:26;3.73;;;3.40;;
29776;SDS011;16677;52.224;7.484;2023-07-29T21:54:48;7.00;;;4.30;;
29776;SDS011;16677;52.224;7.484;2023-07-29T21:57:16;5.87;;;4.13;;
29776;SDS011;16677;52.224;7.484;2023-07-29T21:59:43;6.20;;;4.47;;
29776;SDS011;16677;52.224;7.484;2023-07-29T22:02:10;5.43;;;4.20;;
29776;SDS011;16677;52.224;7.484;2023-07-29T22:04:38;4.57;;;4.17;;
29776;SDS011;16677;52.224;7.484;2023-07-29T22:07:05;4.70;;;4.10;;
29776;SDS011;16677;52.224;7.484;2023-07-29T22:09:32;6.53;;;4.13;;
29776;SDS011;16677;52.224;7.484;2023-07-29T22:12:00;5.13;;;4.00;;
29776;SDS011;16677;52.224;7.484;2023-07-29T22:14:27;4.27;;;3.87;;
29776;SDS011;16677;52.224;7.484;2023-07-29T22:16:55;5.03;;;4.17;;
29776;SDS011;16677;52.224;7.484;2023-07-29T22:19:22;5.03;;;4.03;;
29776;SDS011;16677;52.224;7.484;2023-07-29T22:21:49;4.13;;;3.70;;
29776;SDS011;16677;52.224;7.484;2023-07-29T22:24:18;4.73;;;4.20;;
29776;SDS011;16677;52.224;7.484;2023-07-29T22:26:46;5.80;;;4.17;;
29776;SDS011;16677;52.224;7.484;2023-07-29T22:29:13;4.67;;;4.27;;
29776;SDS011;16677;52.224;7.484;2023-07-29T22:31:40;5.27;;;4.77;;